sensor_id;sensor_type;location;lat;lon;timestamp;pressure;altitude;pressure_sealevel;temperature;humidity
72558;BME280;60583;50.094;8.748;2023-02-28T00:01:01;101666.06;;;1.20;61.58
72558;BME280;60583;50.094;8.748;2023-02-28T00:03:27;101653.34;;;1.14;61.62
72558;BME280;60583;50.094;8.748;2023-02-28T00:05:52;101652.41;;;1.28;61.12
72558;BME280;60583;50.094;8.748;2023-02-28T00:08:18;101627.41;;;1.10;60.91
72558;BME280;60583;50.094;8.748;2023-02-28T00:10:43;101654.81;;;1.18;61.36
72558;BME280;60583;50.094;8.748;2023-02-28T00:13:09;101661.22;;;1.14;62.50
72558;BME280;60583;50.094;8.748;2023-02-28T00:15:34;101650.94;;;1.11;61.90
72558;BME280;60583;50.094;8.748;2023-02-28T00:18:01;101649.28;;;1.10;62.64
72558;BME280;60583;50.094;8.748;2023-02-28T00:20:27;101661.88;;;1.18;62.96
72558;BME280;60583;50.094;8.748;2023-02-28T00:22:53;101666.28;;;1.17;63.06
72558;BME280;60583;50.094;8.748;2023-02-28T00:25:21;101650.84;;;1.00;63.37
72558;BME280;60583;50.094;8.748;2023-02-28T00:27:48;101659.13;;;1.07;63.84
72558;BME280;60583;50.094;8.748;2023-02-28T00:30:17;101610.84;;;0.84;63.89
72558;BME280;60583;50.094;8.748;2023-02-28T00:32:43;101606.66;;;0.82;63.54
72558;BME280;60583;50.094;8.748;2023-02-28T00:35:10;101662.69;;;1.06;64.21
72558;BME280;60583;50.094;8.748;2023-02-28T00:37:35;101658.28;;;1.06;64.35
72558;BME280;60583;50.094;8.748;2023-02-28T00:40:01;101665.00;;;1.23;64.01
72558;BME280;60583;50.094;8.748;2023-02-28T00:42:29;101655.16;;;1.01;64.94
72558;BME280;60583;50.094;8.748;2023-02-28T00:44:55;101654.22;;;1.02;65.64
72558;BME280;60583;50.094;8.748;2023-02-28T00:47:20;101620.94;;;0.78;65.45
72558;BME280;60583;50.094;8.748;2023-02-28T00:49:46;101647.78;;;1.06;65.27
72558;BME280;60583;50.094;8.748;2023-02-28T00:52:11;101644.03;;;0.85;65.93
72558;BME280;60583;50.094;8.748;2023-02-28T00:54:37;101656.72;;;0.91;66.60
72558;BME280;60583;50.094;8.748;2023-02-28T00:57:02;101641.50;;;0.96;65.82
72558;BME280;60583;50.094;8.748;2023-02-28T00:59:28;101658.72;;;1.00;66.80
72558;BME280;60583;50.094;8.748;2023-02-28T01:01:53;101657.97;;;0.98;67.33
72558;BME280;60583;50.094;8.748;2023-02-28T01:04:19;101641.09;;;0.77;66.96
72558;BME280;60583;50.094;8.748;2023-02-28T01:06:44;101665.66;;;1.01;67.11
72558;BME280;60583;50.094;8.748;2023-02-28T01:09:10;101628.91;;;0.76;67.58
72558;BME280;60583;50.094;8.748;2023-02-28T01:11:36;101637.50;;;0.78;67.74
72558;BME280;60583;50.094;8.748;2023-02-28T01:14:02;101655.16;;;0.89;67.70
72558;BME280;60583;50.094;8.748;2023-02-28T01:16:29;101632.91;;;0.69;68.30
72558;BME280;60583;50.094;8.748;2023-02-28T01:18:55;101658.72;;;0.75;68.70
72558;BME280;60583;50.094;8.748;2023-02-28T01:21:21;101641.19;;;0.76;68.18
72558;BME280;60583;50.094;8.748;2023-02-28T01:23:47;101607.69;;;0.67;68.09
72558;BME280;60583;50.094;8.748;2023-02-28T01:26:19;101660.41;;;0.89;68.41
72558;BME280;60583;50.094;8.748;2023-02-28T01:28:45;101655.88;;;0.78;68.13
72558;BME280;60583;50.094;8.748;2023-02-28T01:31:11;101627.00;;;0.53;69.04
72558;BME280;60583;50.094;8.748;2023-02-28T01:33:37;101554.06;;;0.33;68.48
72558;BME280;60583;50.094;8.748;2023-02-28T01:36:05;101648.00;;;0.78;68.75
72558;BME280;60583;50.094;8.748;2023-02-28T01:38:32;101638.25;;;0.80;68.12
72558;BME280;60583;50.094;8.748;2023-02-28T01:40:58;101647.38;;;0.87;69.09
72558;BME280;60583;50.094;8.748;2023-02-28T01:43:32;101594.16;;;0.47;68.14
72558;BME280;60583;50.094;8.748;2023-02-28T01:45:58;101608.63;;;0.53;69.24
72558;BME280;60583;50.094;8.748;2023-02-28T01:48:27;101587.03;;;0.37;68.48
72558;BME280;60583;50.094;8.748;2023-02-28T01:50:59;101636.38;;;0.70;68.68
72558;BME280;60583;50.094;8.748;2023-02-28T01:53:32;101604.75;;;0.46;68.95
72558;BME280;60583;50.094;8.748;2023-02-28T01:56:00;101624.91;;;0.58;69.53
72558;BME280;60583;50.094;8.748;2023-02-28T01:58:26;101638.78;;;0.60;69.18
72558;BME280;60583;50.094;8.748;2023-02-28T02:00:52;101627.84;;;0.66;69.05
72558;BME280;60583;50.094;8.748;2023-02-28T02:03:19;101629.53;;;0.67;69.12
72558;BME280;60583;50.094;8.748;2023-02-28T02:05:45;101603.59;;;0.37;69.70
72558;BME280;60583;50.094;8.748;2023-02-28T02:08:17;101639.50;;;0.49;69.47
72558;BME280;60583;50.094;8.748;2023-02-28T02:10:45;101625.41;;;0.38;70.17
72558;BME280;60583;50.094;8.748;2023-02-28T02:16:26;101617.75;;;0.35;70.21
72558;BME280;60583;50.094;8.748;2023-02-28T02:21:51;101629.31;;;0.45;70.68
72558;BME280;60583;50.094;8.748;2023-02-28T02:27:48;101632.63;;;0.22;71.13
72558;BME280;60583;50.094;8.748;2023-02-28T02:30:53;101634.41;;;0.21;70.94
72558;BME280;60583;50.094;8.748;2023-02-28T02:33:37;101628.63;;;0.16;70.67
72558;BME280;60583;50.094;8.748;2023-02-28T02:36:19;101613.06;;;0.00;70.87
72558;BME280;60583;50.094;8.748;2023-02-28T02:39:00;101596.06;;;-0.07;70.76
72558;BME280;60583;50.094;8.748;2023-02-28T02:41:38;101589.16;;;-0.08;70.95
72558;BME280;60583;50.094;8.748;2023-02-28T02:44:24;101602.34;;;-0.09;70.80
72558;BME280;60583;50.094;8.748;2023-02-28T02:46:54;101598.69;;;-0.07;70.96
72558;BME280;60583;50.094;8.748;2023-02-28T02:49:26;101584.50;;;-0.17;70.52
72558;BME280;60583;50.094;8.748;2023-02-28T02:51:55;101626.69;;;0.06;70.06
72558;BME280;60583;50.094;8.748;2023-02-28T02:54:28;101583.66;;;-0.17;70.00
72558;BME280;60583;50.094;8.748;2023-02-28T02:56:59;101618.66;;;0.09;70.53
72558;BME280;60583;50.094;8.748;2023-02-28T02:59:27;101612.59;;;-0.19;70.41
72558;BME280;60583;50.094;8.748;2023-02-28T03:01:56;101628.66;;;-0.11;70.95
72558;BME280;60583;50.094;8.748;2023-02-28T03:04:24;101621.44;;;-0.07;70.58
72558;BME280;60583;50.094;8.748;2023-02-28T03:06:52;101578.00;;;-0.24;70.18
72558;BME280;60583;50.094;8.748;2023-02-28T03:09:24;101585.84;;;-0.24;70.43
72558;BME280;60583;50.094;8.748;2023-02-28T03:11:52;101608.09;;;-0.17;70.47
72558;BME280;60583;50.094;8.748;2023-02-28T03:20:49;101563.25;;;-0.39;70.02
72558;BME280;60583;50.094;8.748;2023-02-28T03:23:21;101609.31;;;-0.22;69.86
72558;BME280;60583;50.094;8.748;2023-02-28T03:25:56;101538.56;;;-0.61;70.38
72558;BME280;60583;50.094;8.748;2023-02-28T03:31:25;101606.63;;;-0.21;70.44
72558;BME280;60583;50.094;8.748;2023-02-28T03:34:03;101613.69;;;-0.09;70.11
72558;BME280;60583;50.094;8.748;2023-02-28T03:36:33;101581.94;;;-0.31;70.01
72558;BME280;60583;50.094;8.748;2023-02-28T03:39:19;101598.78;;;-0.08;69.86
72558;BME280;60583;50.094;8.748;2023-02-28T03:41:51;101598.59;;;-0.05;69.57
72558;BME280;60583;50.094;8.748;2023-02-28T03:44:24;101559.09;;;-0.29;68.98
72558;BME280;60583;50.094;8.748;2023-02-28T03:46:58;101592.25;;;-0.28;70.06
72558;BME280;60583;50.094;8.748;2023-02-28T03:49:36;101597.47;;;-0.28;68.93
72558;BME280;60583;50.094;8.748;2023-02-28T03:52:06;101622.88;;;-0.16;69.12
72558;BME280;60583;50.094;8.748;2023-02-28T03:54:36;101576.72;;;-0.31;69.48
72558;BME280;60583;50.094;8.748;2023-02-28T03:57:34;101623.34;;;0.04;68.29
72558;BME280;60583;50.094;8.748;2023-02-28T04:00:08;101602.13;;;-0.19;68.11
72558;BME280;60583;50.094;8.748;2023-02-28T04:02:35;101611.66;;;-0.18;67.64
72558;BME280;60583;50.094;8.748;2023-02-28T04:05:01;101615.44;;;-0.09;67.71
72558;BME280;60583;50.094;8.748;2023-02-28T04:07:29;101583.00;;;-0.33;68.24
72558;BME280;60583;50.094;8.748;2023-02-28T04:09:56;101601.97;;;-0.30;67.39
72558;BME280;60583;50.094;8.748;2023-02-28T04:12:22;101607.41;;;-0.33;67.82
72558;BME280;60583;50.094;8.748;2023-02-28T04:14:49;101588.81;;;-0.42;67.74
72558;BME280;60583;50.094;8.748;2023-02-28T04:17:15;101624.78;;;-0.32;68.09
72558;BME280;60583;50.094;8.748;2023-02-28T04:19:40;101626.50;;;-0.31;68.09
72558;BME280;60583;50.094;8.748;2023-02-28T04:22:08;101585.22;;;-0.54;68.28
72558;BME280;60583;50.094;8.748;2023-02-28T04:24:34;101587.03;;;-0.42;68.35
72558;BME280;60583;50.094;8.748;2023-02-28T04:26:59;101610.47;;;-0.26;68.02
72558;BME280;60583;50.094;8.748;2023-02-28T04:29:27;101626.84;;;-0.23;67.87
72558;BME280;60583;50.094;8.748;2023-02-28T04:31:54;101620.09;;;-0.27;67.81
72558;BME280;60583;50.094;8.748;2023-02-28T04:34:23;101621.38;;;-0.20;67.61
72558;BME280;60583;50.094;8.748;2023-02-28T04:36:48;101622.53;;;-0.24;67.32
72558;BME280;60583;50.094;8.748;2023-02-28T04:39:18;101603.94;;;-0.33;67.71
72558;BME280;60583;50.094;8.748;2023-02-28T04:41:45;101617.63;;;-0.16;67.55
72558;BME280;60583;50.094;8.748;2023-02-28T04:44:10;101631.25;;;-0.23;68.02
72558;BME280;60583;50.094;8.748;2023-02-28T04:46:36;101631.97;;;-0.21;67.90
72558;BME280;60583;50.094;8.748;2023-02-28T04:49:01;101544.47;;;-0.72;68.22
72558;BME280;60583;50.094;8.748;2023-02-28T04:51:28;101610.97;;;-0.34;68.12
72558;BME280;60583;50.094;8.748;2023-02-28T04:53:53;101615.84;;;-0.42;68.27
72558;BME280;60583;50.094;8.748;2023-02-28T04:56:19;101607.81;;;-0.39;68.74
72558;BME280;60583;50.094;8.748;2023-02-28T04:58:46;101616.56;;;-0.26;67.95
72558;BME280;60583;50.094;8.748;2023-02-28T05:01:21;101619.75;;;-0.35;68.24
72558;BME280;60583;50.094;8.748;2023-02-28T05:03:47;101587.72;;;-0.52;68.19
72558;BME280;60583;50.094;8.748;2023-02-28T05:06:13;101599.94;;;-0.39;67.69
72558;BME280;60583;50.094;8.748;2023-02-28T05:08:39;101621.75;;;-0.38;68.16
72558;BME280;60583;50.094;8.748;2023-02-28T05:11:15;101626.31;;;-0.42;67.77
72558;BME280;60583;50.094;8.748;2023-02-28T05:13:41;101612.00;;;-0.36;67.97
72558;BME280;60583;50.094;8.748;2023-02-28T05:16:07;101546.47;;;-0.76;68.33
72558;BME280;60583;50.094;8.748;2023-02-28T05:18:32;101579.47;;;-0.46;68.23
72558;BME280;60583;50.094;8.748;2023-02-28T05:20:58;101617.13;;;-0.35;68.83
72558;BME280;60583;50.094;8.748;2023-02-28T05:23:26;101638.09;;;-0.35;68.15
72558;BME280;60583;50.094;8.748;2023-02-28T05:25:52;101589.91;;;-0.59;68.66
72558;BME280;60583;50.094;8.748;2023-02-28T05:28:20;101643.31;;;-0.35;68.66
72558;BME280;60583;50.094;8.748;2023-02-28T05:30:46;101626.97;;;-0.38;68.27
72558;BME280;60583;50.094;8.748;2023-02-28T05:33:12;101630.44;;;-0.38;68.41
72558;BME280;60583;50.094;8.748;2023-02-28T05:35:39;101602.25;;;-0.61;68.30
72558;BME280;60583;50.094;8.748;2023-02-28T05:38:04;101634.28;;;-0.43;68.94
72558;BME280;60583;50.094;8.748;2023-02-28T05:40:30;101600.75;;;-0.65;68.77
72558;BME280;60583;50.094;8.748;2023-02-28T05:42:55;101628.94;;;-0.42;69.09
72558;BME280;60583;50.094;8.748;2023-02-28T05:45:21;101562.13;;;-0.88;68.91
72558;BME280;60583;50.094;8.748;2023-02-28T05:47:46;101629.91;;;-0.57;69.22
72558;BME280;60583;50.094;8.748;2023-02-28T05:50:12;101646.44;;;-0.42;68.93
72558;BME280;60583;50.094;8.748;2023-02-28T05:52:37;101637.84;;;-0.44;68.28
72558;BME280;60583;50.094;8.748;2023-02-28T05:55:03;101635.97;;;-0.42;68.63
72558;BME280;60583;50.094;8.748;2023-02-28T05:57:29;101635.28;;;-0.32;68.73
72558;BME280;60583;50.094;8.748;2023-02-28T05:59:55;101642.34;;;-0.20;67.50
72558;BME280;60583;50.094;8.748;2023-02-28T06:02:20;101573.03;;;-0.55;67.14
72558;BME280;60583;50.094;8.748;2023-02-28T06:04:46;101631.38;;;-0.39;68.22
72558;BME280;60583;50.094;8.748;2023-02-28T06:07:11;101631.91;;;-0.34;67.86
72558;BME280;60583;50.094;8.748;2023-02-28T06:09:37;101615.41;;;-0.48;67.45
72558;BME280;60583;50.094;8.748;2023-02-28T06:12:05;101608.97;;;-0.57;67.15
72558;BME280;60583;50.094;8.748;2023-02-28T06:14:35;101653.81;;;-0.35;67.62
72558;BME280;60583;50.094;8.748;2023-02-28T06:17:02;101644.66;;;-0.28;67.29
72558;BME280;60583;50.094;8.748;2023-02-28T06:19:27;101619.41;;;-0.43;67.54
72558;BME280;60583;50.094;8.748;2023-02-28T06:21:55;101656.97;;;-0.30;67.47
72558;BME280;60583;50.094;8.748;2023-02-28T06:24:23;101655.19;;;-0.15;66.68
72558;BME280;60583;50.094;8.748;2023-02-28T06:26:49;101621.34;;;-0.32;66.98
72558;BME280;60583;50.094;8.748;2023-02-28T06:29:15;101657.88;;;-0.17;66.58
72558;BME280;60583;50.094;8.748;2023-02-28T06:31:43;101655.38;;;-0.18;66.24
72558;BME280;60583;50.094;8.748;2023-02-28T06:34:09;101667.44;;;-0.16;65.51
72558;BME280;60583;50.094;8.748;2023-02-28T06:36:37;101671.16;;;-0.06;64.86
72558;BME280;60583;50.094;8.748;2023-02-28T06:39:03;101674.94;;;0.03;64.38
72558;BME280;60583;50.094;8.748;2023-02-28T06:41:29;101662.38;;;0.08;64.58
72558;BME280;60583;50.094;8.748;2023-02-28T06:43:54;101667.41;;;0.11;64.56
72558;BME280;60583;50.094;8.748;2023-02-28T06:46:20;101666.00;;;0.20;63.64
72558;BME280;60583;50.094;8.748;2023-02-28T06:48:46;101666.22;;;0.29;63.84
72558;BME280;60583;50.094;8.748;2023-02-28T06:51:20;101673.38;;;0.40;63.41
72558;BME280;60583;50.094;8.748;2023-02-28T06:53:47;101679.97;;;0.45;62.79
72558;BME280;60583;50.094;8.748;2023-02-28T06:56:14;101674.19;;;0.40;62.06
72558;BME280;60583;50.094;8.748;2023-02-28T06:58:40;101651.94;;;0.33;61.79
72558;BME280;60583;50.094;8.748;2023-02-28T07:01:07;101659.50;;;0.38;62.13
72558;BME280;60583;50.094;8.748;2023-02-28T07:03:35;101682.34;;;0.75;62.37
72558;BME280;60583;50.094;8.748;2023-02-28T07:06:01;101676.88;;;0.91;61.23
72558;BME280;60583;50.094;8.748;2023-02-28T07:08:27;101683.50;;;0.96;60.79
72558;BME280;60583;50.094;8.748;2023-02-28T07:10:53;101690.84;;;1.16;60.42
72558;BME280;60583;50.094;8.748;2023-02-28T07:13:19;101673.44;;;1.15;59.83
72558;BME280;60583;50.094;8.748;2023-02-28T07:15:59;101688.19;;;1.42;59.84
72558;BME280;60583;50.094;8.748;2023-02-28T07:18:25;101686.72;;;1.50;59.30
72558;BME280;60583;50.094;8.748;2023-02-28T07:20:51;101649.41;;;1.45;58.79
72558;BME280;60583;50.094;8.748;2023-02-28T07:23:17;101673.91;;;1.82;57.96
72558;BME280;60583;50.094;8.748;2023-02-28T07:25:43;101675.47;;;1.84;57.79
72558;BME280;60583;50.094;8.748;2023-02-28T07:28:09;101673.47;;;1.88;57.37
72558;BME280;60583;50.094;8.748;2023-02-28T07:30:34;101642.91;;;1.74;57.21
72558;BME280;60583;50.094;8.748;2023-02-28T07:33:00;101643.81;;;1.86;56.85
72558;BME280;60583;50.094;8.748;2023-02-28T07:35:25;101621.53;;;1.79;57.26
72558;BME280;60583;50.094;8.748;2023-02-28T07:37:51;101661.91;;;2.25;56.65
72558;BME280;60583;50.094;8.748;2023-02-28T07:40:17;101650.53;;;2.25;56.12
72558;BME280;60583;50.094;8.748;2023-02-28T07:42:43;101685.31;;;2.52;55.94
72558;BME280;60583;50.094;8.748;2023-02-28T07:45:10;101635.75;;;2.35;54.98
72558;BME280;60583;50.094;8.748;2023-02-28T07:47:41;101679.69;;;2.45;55.25
72558;BME280;60583;50.094;8.748;2023-02-28T07:50:08;101667.53;;;2.55;55.23
72558;BME280;60583;50.094;8.748;2023-02-28T07:52:36;101684.00;;;2.92;54.81
72558;BME280;60583;50.094;8.748;2023-02-28T07:55:02;101655.00;;;2.92;54.09
72558;BME280;60583;50.094;8.748;2023-02-28T07:57:28;101659.34;;;2.93;53.40
72558;BME280;60583;50.094;8.748;2023-02-28T07:59:53;101694.09;;;3.20;53.54
72558;BME280;60583;50.094;8.748;2023-02-28T08:02:19;101681.38;;;3.03;53.69
72558;BME280;60583;50.094;8.748;2023-02-28T08:04:44;101701.03;;;3.21;53.68
72558;BME280;60583;50.094;8.748;2023-02-28T08:07:12;101653.84;;;2.96;53.83
72558;BME280;60583;50.094;8.748;2023-02-28T08:09:42;101661.75;;;3.18;52.78
72558;BME280;60583;50.094;8.748;2023-02-28T08:12:09;101674.81;;;3.42;51.75
72558;BME280;60583;50.094;8.748;2023-02-28T08:14:34;101694.81;;;3.56;52.14
72558;BME280;60583;50.094;8.748;2023-02-28T08:17:00;101626.41;;;3.21;50.60
72558;BME280;60583;50.094;8.748;2023-02-28T08:19:26;101626.41;;;3.32;50.76
72558;BME280;60583;50.094;8.748;2023-02-28T08:21:51;101703.06;;;3.73;50.44
72558;BME280;60583;50.094;8.748;2023-02-28T08:24:17;101684.34;;;3.65;50.97
72558;BME280;60583;50.094;8.748;2023-02-28T08:26:43;101697.56;;;4.08;50.24
72558;BME280;60583;50.094;8.748;2023-02-28T08:29:08;101698.56;;;3.96;49.30
72558;BME280;60583;50.094;8.748;2023-02-28T08:31:34;101705.63;;;4.07;48.46
72558;BME280;60583;50.094;8.748;2023-02-28T08:34:12;101704.72;;;3.85;48.86
72558;BME280;60583;50.094;8.748;2023-02-28T08:36:38;101667.69;;;3.76;48.20
72558;BME280;60583;50.094;8.748;2023-02-28T08:39:04;101695.00;;;3.86;49.12
72558;BME280;60583;50.094;8.748;2023-02-28T08:41:30;101659.19;;;3.72;48.00
72558;BME280;60583;50.094;8.748;2023-02-28T08:43:56;101658.16;;;3.96;48.38
72558;BME280;60583;50.094;8.748;2023-02-28T08:46:21;101646.16;;;4.03;48.14
72558;BME280;60583;50.094;8.748;2023-02-28T08:48:47;101694.22;;;4.06;48.00
72558;BME280;60583;50.094;8.748;2023-02-28T08:51:14;101704.78;;;4.06;47.10
72558;BME280;60583;50.094;8.748;2023-02-28T08:53:44;101697.31;;;4.22;46.28
72558;BME280;60583;50.094;8.748;2023-02-28T08:56:12;101670.16;;;3.88;47.10
72558;BME280;60583;50.094;8.748;2023-02-28T08:58:38;101679.75;;;4.32;46.32
72558;BME280;60583;50.094;8.748;2023-02-28T09:01:12;101719.47;;;4.31;45.57
72558;BME280;60583;50.094;8.748;2023-02-28T09:03:38;101706.78;;;4.25;45.38
72558;BME280;60583;50.094;8.748;2023-02-28T09:06:04;101646.88;;;3.94;46.23
72558;BME280;60583;50.094;8.748;2023-02-28T09:08:31;101680.59;;;4.33;45.89
72558;BME280;60583;50.094;8.748;2023-02-28T09:10:57;101684.91;;;4.55;44.85
72558;BME280;60583;50.094;8.748;2023-02-28T09:13:24;101661.78;;;4.47;44.38
72558;BME280;60583;50.094;8.748;2023-02-28T09:15:50;101677.16;;;4.21;44.86
72558;BME280;60583;50.094;8.748;2023-02-28T09:18:16;101651.38;;;4.14;45.28
72558;BME280;60583;50.094;8.748;2023-02-28T09:20:43;101693.16;;;4.40;44.33
72558;BME280;60583;50.094;8.748;2023-02-28T09:23:10;101681.22;;;4.46;44.73
72558;BME280;60583;50.094;8.748;2023-02-28T09:25:36;101706.16;;;4.32;44.39
72558;BME280;60583;50.094;8.748;2023-02-28T09:28:01;101640.47;;;3.75;45.11
72558;BME280;60583;50.094;8.748;2023-02-28T09:30:28;101669.59;;;4.17;45.55
72558;BME280;60583;50.094;8.748;2023-02-28T09:32:54;101657.72;;;4.64;44.40
72558;BME280;60583;50.094;8.748;2023-02-28T09:35:22;101684.59;;;4.89;43.53
72558;BME280;60583;50.094;8.748;2023-02-28T09:37:49;101657.22;;;5.21;42.57
72558;BME280;60583;50.094;8.748;2023-02-28T09:40:15;101675.47;;;5.63;41.81
72558;BME280;60583;50.094;8.748;2023-02-28T09:42:45;101687.47;;;5.28;42.19
72558;BME280;60583;50.094;8.748;2023-02-28T09:45:24;101671.31;;;5.70;41.83
72558;BME280;60583;50.094;8.748;2023-02-28T09:47:52;101704.94;;;5.49;41.32
72558;BME280;60583;50.094;8.748;2023-02-28T09:52:52;101678.41;;;5.30;42.17
72558;BME280;60583;50.094;8.748;2023-02-28T09:55:30;101674.81;;;4.80;42.49
72558;BME280;60583;50.094;8.748;2023-02-28T09:57:58;101656.78;;;4.85;42.41
72558;BME280;60583;50.094;8.748;2023-02-28T10:00:38;101677.91;;;4.85;43.31
72558;BME280;60583;50.094;8.748;2023-02-28T10:03:27;101687.88;;;5.02;43.03
72558;BME280;60583;50.094;8.748;2023-02-28T10:06:22;101672.50;;;7.29;38.10
72558;BME280;60583;50.094;8.748;2023-02-28T10:09:03;101675.41;;;7.90;36.54
72558;BME280;60583;50.094;8.748;2023-02-28T10:11:33;101680.19;;;7.32;37.32
72558;BME280;60583;50.094;8.748;2023-02-28T10:14:03;101685.25;;;8.60;36.04
72558;BME280;60583;50.094;8.748;2023-02-28T10:16:38;101676.94;;;9.07;34.26
72558;BME280;60583;50.094;8.748;2023-02-28T10:19:13;101658.94;;;10.74;32.26
72558;BME280;60583;50.094;8.748;2023-02-28T10:21:47;101659.38;;;9.22;32.64
72558;BME280;60583;50.094;8.748;2023-02-28T10:24:26;101669.13;;;11.42;30.58
72558;BME280;60583;50.094;8.748;2023-02-28T10:26:59;101672.69;;;12.04;28.90
72558;BME280;60583;50.094;8.748;2023-02-28T10:29:26;101670.09;;;10.78;30.88
72558;BME280;60583;50.094;8.748;2023-02-28T10:31:52;101675.75;;;9.35;32.86
72558;BME280;60583;50.094;8.748;2023-02-28T10:34:17;101674.06;;;9.26;32.54
72558;BME280;60583;50.094;8.748;2023-02-28T10:36:44;101651.09;;;8.30;34.72
72558;BME280;60583;50.094;8.748;2023-02-28T10:39:39;101675.53;;;9.54;32.20
72558;BME280;60583;50.094;8.748;2023-02-28T10:42:19;101658.25;;;10.72;31.28
72558;BME280;60583;50.094;8.748;2023-02-28T10:44:45;101656.06;;;10.11;31.08
72558;BME280;60583;50.094;8.748;2023-02-28T10:47:16;101656.25;;;10.26;31.81
72558;BME280;60583;50.094;8.748;2023-02-28T10:49:49;101661.22;;;9.55;31.68
72558;BME280;60583;50.094;8.748;2023-02-28T10:52:36;101658.44;;;10.79;31.02
72558;BME280;60583;50.094;8.748;2023-02-28T10:55:23;101655.81;;;13.38;27.33
72558;BME280;60583;50.094;8.748;2023-02-28T10:57:51;101641.09;;;13.05;26.76
72558;BME280;60583;50.094;8.748;2023-02-28T11:00:22;101630.81;;;14.24;25.64
72558;BME280;60583;50.094;8.748;2023-02-28T11:02:51;101657.03;;;13.21;25.79
72558;BME280;60583;50.094;8.748;2023-02-28T11:05:31;101647.38;;;14.27;24.99
72558;BME280;60583;50.094;8.748;2023-02-28T11:08:12;101647.00;;;14.51;24.28
72558;BME280;60583;50.094;8.748;2023-02-28T11:10:39;101618.06;;;15.77;22.89
72558;BME280;60583;50.094;8.748;2023-02-28T11:13:17;101639.50;;;16.38;22.23
72558;BME280;60583;50.094;8.748;2023-02-28T11:15:51;101642.75;;;12.31;26.48
72558;BME280;60583;50.094;8.748;2023-02-28T11:20:49;101666.78;;;11.39;28.12
72558;BME280;60583;50.094;8.748;2023-02-28T11:23:15;101660.50;;;12.69;25.55
72558;BME280;60583;50.094;8.748;2023-02-28T11:25:50;101660.50;;;12.69;25.39
72558;BME280;60583;50.094;8.748;2023-02-28T11:28:36;101667.16;;;13.40;24.80
72558;BME280;60583;50.094;8.748;2023-02-28T11:33:53;101647.72;;;12.94;25.60
72558;BME280;60583;50.094;8.748;2023-02-28T11:36:22;101669.59;;;10.82;28.23
72558;BME280;60583;50.094;8.748;2023-02-28T11:38:50;101653.06;;;13.31;26.09
72558;BME280;60583;50.094;8.748;2023-02-28T11:41:33;101660.84;;;12.29;26.45
72558;BME280;60583;50.094;8.748;2023-02-28T11:46:58;101646.81;;;11.66;27.55
72558;BME280;60583;50.094;8.748;2023-02-28T11:49:35;101647.78;;;13.09;25.99
72558;BME280;60583;50.094;8.748;2023-02-28T11:52:10;101608.72;;;14.00;24.79
72558;BME280;60583;50.094;8.748;2023-02-28T11:54:52;101628.22;;;14.51;23.48
72558;BME280;60583;50.094;8.748;2023-02-28T12:03:03;101636.06;;;14.74;22.71
72558;BME280;60583;50.094;8.748;2023-02-28T12:05:57;101631.22;;;13.99;23.91
72558;BME280;60583;50.094;8.748;2023-02-28T12:11:50;101602.84;;;16.43;21.38
72558;BME280;60583;50.094;8.748;2023-02-28T12:17:27;101631.72;;;15.42;22.44
72558;BME280;60583;50.094;8.748;2023-02-28T12:22:37;101583.19;;;15.50;22.22
72558;BME280;60583;50.094;8.748;2023-02-28T12:27:37;101573.19;;;13.77;24.94
72558;BME280;60583;50.094;8.748;2023-02-28T12:30:24;101614.78;;;15.07;23.71
72558;BME280;60583;50.094;8.748;2023-02-28T12:32:55;101582.03;;;15.72;22.41
72558;BME280;60583;50.094;8.748;2023-02-28T12:35:32;101639.63;;;15.97;21.41
72558;BME280;60583;50.094;8.748;2023-02-28T12:38:31;101619.50;;;13.86;24.06
72558;BME280;60583;50.094;8.748;2023-02-28T12:41:03;101599.16;;;15.23;23.24
72558;BME280;60583;50.094;8.748;2023-02-28T12:43:42;101538.59;;;15.75;21.73
72558;BME280;60583;50.094;8.748;2023-02-28T12:46:12;101570.50;;;16.04;21.85
72558;BME280;60583;50.094;8.748;2023-02-28T12:49:08;101603.25;;;16.40;21.89
72558;BME280;60583;50.094;8.748;2023-02-28T12:51:35;101603.91;;;16.69;21.62
72558;BME280;60583;50.094;8.748;2023-02-28T12:54:21;101592.88;;;16.37;22.06
72558;BME280;60583;50.094;8.748;2023-02-28T12:57:06;101580.44;;;16.04;22.30
72558;BME280;60583;50.094;8.748;2023-02-28T12:59:38;101501.72;;;13.84;24.34
72558;BME280;60583;50.094;8.748;2023-02-28T13:10:46;101597.88;;;12.93;25.14
72558;BME280;60583;50.094;8.748;2023-02-28T13:13:18;101594.25;;;13.59;24.62
72558;BME280;60583;50.094;8.748;2023-02-28T13:16:05;101603.81;;;14.74;23.40
72558;BME280;60583;50.094;8.748;2023-02-28T13:18:39;101577.47;;;14.56;23.46
72558;BME280;60583;50.094;8.748;2023-02-28T13:21:09;101587.94;;;14.73;23.17
72558;BME280;60583;50.094;8.748;2023-02-28T13:39:54;101600.50;;;7.87;34.03
72558;BME280;60583;50.094;8.748;2023-02-28T13:42:34;101595.97;;;7.79;35.11
72558;BME280;60583;50.094;8.748;2023-02-28T13:58:26;101587.28;;;6.68;37.38
72558;BME280;60583;50.094;8.748;2023-02-28T14:06:35;101555.34;;;6.70;38.14
72558;BME280;60583;50.094;8.748;2023-02-28T14:11:37;101604.06;;;6.59;38.21
72558;BME280;60583;50.094;8.748;2023-02-28T14:14:04;101578.28;;;6.42;38.35
72558;BME280;60583;50.094;8.748;2023-02-28T14:16:39;101563.81;;;6.17;39.01
72558;BME280;60583;50.094;8.748;2023-02-28T14:19:26;101583.44;;;6.43;38.73
72558;BME280;60583;50.094;8.748;2023-02-28T14:32:45;101575.75;;;6.50;39.46
72558;BME280;60583;50.094;8.748;2023-02-28T14:35:39;101574.50;;;6.44;39.34
72558;BME280;60583;50.094;8.748;2023-02-28T14:38:16;101573.25;;;6.49;39.88
72558;BME280;60583;50.094;8.748;2023-02-28T14:40:44;101567.81;;;6.50;39.58
72558;BME280;60583;50.094;8.748;2023-02-28T14:43:26;101569.09;;;6.46;40.16
72558;BME280;60583;50.094;8.748;2023-02-28T14:46:00;101530.34;;;6.35;40.01
72558;BME280;60583;50.094;8.748;2023-02-28T14:48:27;101570.75;;;6.57;39.86
72558;BME280;60583;50.094;8.748;2023-02-28T14:50:55;101562.06;;;6.55;39.82
72558;BME280;60583;50.094;8.748;2023-02-28T14:53:23;101550.66;;;6.44;40.54